Time;durP1;ratioP1;P1;durP2;ratioP2;P2;SDS_P1;SDS_P2;PMS_P1;PMS_P2;Temp;Humidity;BMP_temperature;BMP_pressure;BME280_temperature;BME280_humidity;BME280_pressure;Samples;Min_cycle;Max_cycle;Signal;HPM_P1;HPM_P2
2023/10/05 00:01:45;;;;;;;25.17;6.35;;;12.60;99.90;;;;;;5010609;28;20029;-59
2023/10/05 00:04:15;;;;;;;19.85;5.82;;;12.60;99.90;;;;;;5015229;28;20040;-60
2023/10/05 00:06:45;;;;;;;24.77;5.72;;;12.60;99.90;;;;;;5011512;28;20041;-61
2023/10/05 00:09:13;;;;;;;25.42;5.00;;;12.50;99.90;;;;;;5018527;28;20021;-60
2023/10/05 00:11:39;;;;;;;17.88;5.35;;;12.50;99.90;;;;;;5008441;28;20106;-61
2023/10/05 00:14:10;;;;;;;19.00;5.35;;;12.50;99.90;;;;;;5010082;28;20190;-60
2023/10/05 00:16:36;;;;;;;15.68;5.53;;;12.50;99.90;;;;;;5014925;28;20024;-60
2023/10/05 00:19:10;;;;;;;20.60;6.85;;;12.40;99.90;;;;;;5017193;28;20754;-59
2023/10/05 00:21:36;;;;;;;;;;;12.40;99.90;;;;;;5016132;28;20033;-60
2023/10/05 00:24:06;;;;;;;14.60;5.60;;;12.40;99.90;;;;;;5011570;28;19960;-55
2023/10/05 00:26:36;;;;;;;20.40;5.97;;;12.50;99.90;;;;;;5019483;28;20037;-61
2023/10/05 00:31:49;;;;;;;20.27;6.13;;;12.40;99.90;;;;;;5016897;28;20422;-60
2023/10/05 00:36:50;;;;;;;17.80;5.95;;;12.50;99.90;;;;;;5015652;28;20038;-63
2023/10/05 00:39:21;;;;;;;15.18;5.47;;;12.50;99.90;;;;;;5022571;28;20032;-61
2023/10/05 00:42:08;;;;;;;18.58;5.32;;;12.50;99.90;;;;;;5018950;28;20492;-62
2023/10/05 00:44:36;;;;;;;19.75;6.20;;;12.50;99.90;;;;;;5020662;28;20520;-60
2023/10/05 00:47:07;;;;;;;16.58;5.03;;;12.50;99.90;;;;;;5016129;28;20046;-62
2023/10/05 00:49:51;;;;;;;19.38;5.70;;;12.50;99.90;;;;;;5013002;28;20034;-61
2023/10/05 00:52:24;;;;;;;;;;;12.60;99.90;;;;;;5015425;28;20096;-60
2023/10/05 00:54:51;;;;;;;21.88;5.65;;;12.60;99.90;;;;;;5022702;28;19913;-61
2023/10/05 00:57:22;;;;;;;24.88;5.53;;;12.60;99.90;;;;;;5017590;28;20037;-61
2023/10/05 00:59:56;;;;;;;16.63;5.97;;;12.50;99.90;;;;;;5019183;28;20026;-61
2023/10/05 01:02:22;;;;;;;;;;;12.50;99.90;;;;;;5020001;28;20036;-62
2023/10/05 01:12:36;;;;;;;20.17;5.22;;;12.50;99.90;;;;;;5019974;28;20025;-61
2023/10/05 01:15:04;;;;;;;13.20;4.68;;;12.60;99.90;;;;;;5022281;28;20030;-61
2023/10/05 01:17:30;;;;;;;11.80;4.68;;;12.60;99.90;;;;;;5028222;28;20523;-62
2023/10/05 01:20:07;;;;;;;19.23;5.45;;;12.70;99.90;;;;;;5021562;28;20091;-61
2023/10/05 01:22:33;;;;;;;19.00;5.03;;;12.70;99.90;;;;;;5027338;28;20034;-59
2023/10/05 01:25:01;;;;;;;19.33;4.88;;;12.60;99.90;;;;;;5021914;28;20033;-60
2023/10/05 01:27:29;;;;;;;14.30;5.30;;;12.60;99.90;;;;;;5026902;28;20029;-61
2023/10/05 01:29:59;;;;;;;17.33;5.63;;;12.60;99.90;;;;;;5020772;28;20056;-60
2023/10/05 01:32:26;;;;;;;20.83;5.07;;;12.60;99.90;;;;;;5023901;28;20028;-59
2023/10/05 01:34:55;;;;;;;17.70;5.35;;;12.60;99.90;;;;;;5016875;28;20033;-61
2023/10/05 01:37:26;;;;;;;22.65;4.78;;;12.60;99.90;;;;;;5018226;28;20498;-60
2023/10/05 01:39:52;;;;;;;19.25;5.72;;;12.60;99.90;;;;;;5022467;28;20025;-61
2023/10/05 01:42:18;;;;;;;20.38;4.82;;;12.60;99.90;;;;;;5018807;28;20021;-58
2023/10/05 01:44:47;;;;;;;17.48;5.50;;;12.60;99.90;;;;;;5023152;28;20108;-59
2023/10/05 01:47:17;;;;;;;20.63;5.75;;;12.70;99.90;;;;;;5020818;28;20041;-61
2023/10/05 01:49:44;;;;;;;17.50;5.15;;;12.60;99.90;;;;;;5020002;28;20038;-61
2023/10/05 01:52:10;;;;;;;21.65;5.80;;;12.60;99.90;;;;;;5022982;28;20077;-62
2023/10/05 01:54:43;;;;;;;20.67;5.65;;;12.70;99.90;;;;;;5016365;28;20026;-61
2023/10/05 01:57:09;;;;;;;19.58;5.28;;;12.70;99.90;;;;;;5019065;28;20030;-61
2023/10/05 01:59:36;;;;;;;20.55;5.75;;;12.70;99.90;;;;;;5020494;28;20021;-59
2023/10/05 02:02:04;;;;;;;15.25;4.50;;;12.70;99.90;;;;;;5018890;28;20013;-62
2023/10/05 02:04:31;;;;;;;20.65;5.18;;;12.70;99.90;;;;;;5021607;28;20014;-61
2023/10/05 02:06:56;;;;;;;26.25;5.60;;;12.80;99.90;;;;;;5021219;28;20050;-61
2023/10/05 02:09:22;;;;;;;21.38;6.00;;;12.80;99.90;;;;;;5023020;28;20107;-61
2023/10/05 02:11:48;;;;;;;17.90;5.63;;;12.80;99.90;;;;;;5023690;28;20029;-59
2023/10/05 02:14:16;;;;;;;15.93;5.25;;;12.80;99.90;;;;;;5015527;28;20021;-61
2023/10/05 02:16:42;;;;;;;14.73;5.05;;;12.80;99.90;;;;;;5023910;28;20387;-61
2023/10/05 02:19:08;;;;;;;18.27;5.07;;;12.80;99.90;;;;;;5022535;28;20037;-59
2023/10/05 02:21:37;;;;;;;17.40;4.55;;;12.80;99.90;;;;;;5020136;28;20026;-59
2023/10/05 02:24:11;;;;;;;15.93;5.70;;;12.80;99.90;;;;;;5027979;28;20043;-60
2023/10/05 02:26:45;;;;;;;;;;;12.80;99.90;;;;;;5018759;28;20025;-61
2023/10/05 02:29:13;;;;;;;24.17;4.95;;;12.90;99.90;;;;;;5027847;28;19932;-61
2023/10/05 02:31:54;;;;;;;11.88;3.97;;;12.90;99.90;;;;;;5019720;28;20095;-61
2023/10/05 02:34:20;;;;;;;11.73;4.45;;;12.90;99.90;;;;;;5019293;28;20116;-61
2023/10/05 02:36:46;;;;;;;15.68;4.28;;;12.90;99.90;;;;;;5020566;28;20615;-61
2023/10/05 02:39:12;;;;;;;21.35;4.97;;;12.90;99.90;;;;;;5024265;28;20022;-60
2023/10/05 02:41:40;;;;;;;10.77;3.67;;;12.90;99.90;;;;;;5028231;28;20477;-60
2023/10/05 02:46:48;;;;;;;15.57;3.83;;;12.80;99.90;;;;;;5015021;28;20026;-59
2023/10/05 02:49:18;;;;;;;15.55;4.35;;;12.80;99.90;;;;;;5021075;28;20044;-61
2023/10/05 02:51:44;;;;;;;13.77;4.40;;;12.80;99.90;;;;;;5020604;28;20030;-59
2023/10/05 02:54:12;;;;;;;16.38;4.10;;;12.80;99.90;;;;;;5017535;28;20148;-61
2023/10/05 02:56:40;;;;;;;15.98;3.78;;;12.80;99.90;;;;;;5022362;28;20391;-61
2023/10/05 02:59:14;;;;;;;10.73;4.30;;;12.70;99.90;;;;;;5020772;28;20017;-61
2023/10/05 03:01:42;;;;;;;15.85;4.35;;;12.70;99.90;;;;;;5018034;28;20049;-61
2023/10/05 03:06:40;;;;;;;12.80;3.33;;;12.50;99.90;;;;;;5017706;28;20028;-62
2023/10/05 03:09:09;;;;;;;15.82;3.88;;;12.40;99.90;;;;;;5021844;28;20387;-61
2023/10/05 03:11:47;;;;;;;16.75;3.95;;;12.50;99.90;;;;;;5017195;28;20116;-61
2023/10/05 03:14:16;;;;;;;16.00;3.83;;;12.40;99.90;;;;;;5017060;28;20476;-61
2023/10/05 03:16:48;;;;;;;22.10;4.30;;;12.30;99.90;;;;;;5022582;28;20087;-60
2023/10/05 03:19:20;;;;;;;13.25;4.18;;;12.20;99.90;;;;;;5017935;28;20033;-62
2023/10/05 03:21:50;;;;;;;13.57;3.63;;;12.20;99.90;;;;;;5020912;28;20518;-60
2023/10/05 03:24:19;;;;;;;10.77;4.05;;;12.20;99.90;;;;;;5021093;28;20029;-58
2023/10/05 03:26:51;;;;;;;12.68;4.07;;;12.20;99.90;;;;;;5021785;28;20041;-61
2023/10/05 03:29:17;;;;;;;17.67;4.45;;;12.20;99.90;;;;;;5028836;28;20068;-61
2023/10/05 03:34:27;;;;;;;12.30;4.05;;;12.20;99.90;;;;;;5019490;28;20421;-61
2023/10/05 03:36:53;;;;;;;17.50;4.15;;;12.20;99.90;;;;;;5017259;28;20030;-61
2023/10/05 03:39:22;;;;;;;13.45;4.40;;;12.20;99.90;;;;;;5015686;28;20025;-60
2023/10/05 03:41:48;;;;;;;16.17;3.78;;;12.30;99.90;;;;;;5020394;28;20034;-55
2023/10/05 03:44:16;;;;;;;18.55;4.38;;;12.30;99.90;;;;;;5023702;28;20100;-60
2023/10/05 03:46:47;;;;;;;16.63;4.95;;;12.30;99.90;;;;;;5016206;28;20040;-61
2023/10/05 03:49:18;;;;;;;11.35;4.22;;;12.30;99.90;;;;;;5017357;28;20582;-60
2023/10/05 03:51:49;;;;;;;21.10;4.63;;;12.40;99.90;;;;;;5022073;28;20025;-60
2023/10/05 03:54:24;;;;;;;15.30;4.55;;;12.40;99.90;;;;;;5019342;28;20056;-61
2023/10/05 03:57:04;;;;;;;27.80;3.88;;;12.40;99.90;;;;;;5020107;28;20036;-60
2023/10/05 03:59:31;;;;;;;16.83;4.60;;;12.40;99.90;;;;;;5024358;28;20084;-60
2023/10/05 04:01:59;;;;;;;11.88;3.72;;;12.40;99.90;;;;;;5022906;28;20053;-61
2023/10/05 04:04:33;;;;;;;15.02;4.93;;;12.40;99.90;;;;;;5021452;28;20056;-59
2023/10/05 04:06:59;;;;;;;16.95;5.22;;;12.40;99.90;;;;;;5022328;28;20029;-59
2023/10/05 04:09:28;;;;;;;15.32;4.15;;;12.40;99.90;;;;;;5024262;28;20049;-59
2023/10/05 04:11:54;;;;;;;18.33;5.13;;;12.40;99.90;;;;;;5013773;28;20022;-60
2023/10/05 04:14:20;;;;;;;14.95;4.25;;;12.30;99.90;;;;;;5019377;28;20416;-60
2023/10/05 04:16:48;;;;;;;13.45;4.40;;;12.30;99.90;;;;;;5020039;28;20037;-62
2023/10/05 04:19:14;;;;;;;13.38;4.78;;;12.30;99.90;;;;;;5021075;28;20366;-62
2023/10/05 04:21:40;;;;;;;15.27;5.63;;;12.40;99.90;;;;;;5026226;28;20060;-61
2023/10/05 04:24:06;;;;;;;14.32;4.80;;;12.30;99.90;;;;;;5022536;28;20025;-61
2023/10/05 04:26:37;;;;;;;17.50;4.82;;;12.40;99.90;;;;;;5022200;28;20095;-61
2023/10/05 04:29:04;;;;;;;16.73;4.20;;;12.40;99.90;;;;;;5018031;28;20492;-62
2023/10/05 04:31:31;;;;;;;13.45;4.07;;;12.40;99.90;;;;;;5019442;28;20033;-61
2023/10/05 04:33:57;;;;;;;14.85;4.15;;;12.40;99.90;;;;;;5017934;28;20025;-61
2023/10/05 04:36:24;;;;;;;12.70;4.25;;;12.40;99.90;;;;;;5024229;28;20028;-61
2023/10/05 04:38:54;;;;;;;14.40;4.22;;;12.40;99.90;;;;;;5020976;28;20025;-61
2023/10/05 04:41:24;;;;;;;14.95;4.10;;;12.40;99.90;;;;;;5025535;28;20021;-60
2023/10/05 04:43:50;;;;;;;12.38;3.75;;;12.50;99.90;;;;;;5028813;28;20443;-61
2023/10/05 04:46:18;;;;;;;10.90;3.35;;;12.50;99.90;;;;;;5021967;28;20040;-60
2023/10/05 04:48:55;;;;;;;12.30;3.35;;;12.50;99.90;;;;;;5026591;28;20018;-59
2023/10/05 04:51:26;;;;;;;10.13;2.83;;;12.60;99.90;;;;;;5029119;28;20120;-61
2023/10/05 04:53:58;;;;;;;6.88;3.15;;;12.60;99.90;;;;;;5027560;28;20502;-61
2023/10/05 04:56:35;;;;;;;10.20;2.90;;;12.60;99.90;;;;;;5029583;28;20036;-62
2023/10/05 05:05:21;;;;;;;18.95;3.55;;;12.80;99.90;;;;;;5031863;28;20508;-60
2023/10/05 05:07:13;;;;;;;16.75;3.17;;;12.90;99.90;;;;;;5027893;28;20451;-60
2023/10/05 05:09:42;;;;;;;13.02;3.10;;;13.00;99.90;;;;;;5020732;28;20030;-60
2023/10/05 05:12:16;;;;;;;13.93;3.60;;;13.10;99.90;;;;;;5024319;28;20067;-59
2023/10/05 05:14:43;;;;;;;11.50;3.45;;;13.10;99.90;;;;;;5030774;28;20030;-61
2023/10/05 05:17:15;;;;;;;12.30;3.38;;;13.10;99.90;;;;;;5029435;28;20031;-61
2023/10/05 05:19:41;;;;;;;13.60;3.92;;;13.20;99.90;;;;;;5032718;28;20029;-60
2023/10/05 05:22:08;;;;;;;23.40;3.97;;;13.20;99.90;;;;;;5027227;28;20075;-60
2023/10/05 05:24:37;;;;;;;13.05;3.53;;;13.30;99.90;;;;;;5027275;28;20040;-61
2023/10/05 05:29:38;;;;;;;11.02;2.90;;;13.20;99.90;;;;;;5033178;28;20022;-61
2023/10/05 05:32:10;;;;;;;13.98;3.03;;;13.20;99.90;;;;;;5030410;28;20554;-58
2023/10/05 05:34:41;;;;;;;15.02;3.63;;;13.20;99.90;;;;;;5024631;28;20030;-58
2023/10/05 05:37:08;;;;;;;8.68;2.78;;;13.20;99.90;;;;;;5022552;28;20028;-61
2023/10/05 05:39:39;;;;;;;9.75;2.90;;;13.20;99.90;;;;;;5028273;28;20020;-62
2023/10/05 05:42:14;;;;;;;16.90;3.25;;;13.20;99.90;;;;;;5027416;28;20509;-61
2023/10/05 05:44:43;;;;;;;18.45;3.90;;;13.20;99.90;;;;;;5027296;28;20033;-62
2023/10/05 05:47:09;;;;;;;10.10;2.97;;;13.20;99.90;;;;;;5019852;28;20557;-61
2023/10/05 05:49:45;;;;;;;12.27;3.22;;;13.30;99.90;;;;;;5022058;28;20021;-61
2023/10/05 05:52:14;;;;;;;13.68;3.20;;;13.30;99.90;;;;;;5026100;28;20033;-61
2023/10/05 05:54:41;;;;;;;9.88;3.15;;;13.20;99.90;;;;;;5028692;28;20033;-60
2023/10/05 05:57:07;;;;;;;14.07;3.67;;;13.20;99.90;;;;;;5021157;28;20021;-61
2023/10/05 05:59:34;;;;;;;13.75;3.65;;;13.20;99.90;;;;;;5025017;28;20053;-59
2023/10/05 06:02:01;;;;;;;15.13;4.65;;;13.30;99.90;;;;;;5026594;28;20036;-60
2023/10/05 06:04:28;;;;;;;12.73;3.97;;;13.30;99.90;;;;;;5022218;28;20022;-61
2023/10/05 06:06:53;;;;;;;14.45;4.00;;;13.40;99.90;;;;;;5025054;28;20396;-62
2023/10/05 06:09:22;;;;;;;8.90;3.05;;;13.40;99.90;;;;;;5024910;28;20028;-62
2023/10/05 06:11:49;;;;;;;16.05;3.08;;;13.40;99.90;;;;;;5020247;28;20970;-61
2023/10/05 06:14:16;;;;;;;14.77;3.08;;;13.40;99.90;;;;;;5018847;28;20080;-61
2023/10/05 06:16:41;;;;;;;11.85;3.40;;;13.40;99.90;;;;;;5021114;28;20033;-61
2023/10/05 06:19:07;;;;;;;9.57;3.03;;;13.30;99.90;;;;;;5025001;28;20025;-60
2023/10/05 06:21:34;;;;;;;15.57;3.72;;;13.40;99.90;;;;;;5023895;28;20045;-62
2023/10/05 06:23:59;;;;;;;14.77;3.35;;;13.40;99.90;;;;;;5024223;28;20022;-61
2023/10/05 06:26:25;;;;;;;20.25;3.72;;;13.40;99.90;;;;;;5019700;28;20030;-61
2023/10/05 06:28:50;;;;;;;10.90;2.97;;;13.40;99.90;;;;;;5032463;28;20033;-61
2023/10/05 06:31:16;;;;;;;11.25;3.00;;;13.40;99.90;;;;;;5023087;28;20021;-60
2023/10/05 06:33:43;;;;;;;10.52;3.13;;;13.50;99.90;;;;;;5029920;28;20372;-60
2023/10/05 06:36:09;;;;;;;10.88;3.10;;;13.50;99.90;;;;;;5025243;28;20025;-61
2023/10/05 06:38:37;;;;;;;11.63;2.20;;;13.50;99.90;;;;;;5024580;28;20506;-62
2023/10/05 06:41:03;;;;;;;11.65;2.33;;;13.70;99.90;;;;;;5022222;28;20553;-62
2023/10/05 06:43:35;;;;;;;13.52;2.92;;;13.70;99.90;;;;;;5014672;28;20105;-61
2023/10/05 06:46:09;;;;;;;11.82;3.55;;;13.80;99.90;;;;;;5021884;28;20485;-61
2023/10/05 06:48:37;;;;;;;12.13;2.30;;;13.80;99.90;;;;;;5024349;28;20057;-61
2023/10/05 06:51:03;;;;;;;12.20;2.80;;;13.90;99.90;;;;;;5025140;28;20030;-61
2023/10/05 06:53:29;;;;;;;17.45;3.30;;;13.90;99.90;;;;;;5019678;28;20040;-61
2023/10/05 06:55:56;;;;;;;9.20;2.42;;;14.00;99.90;;;;;;5023862;28;20033;-61
2023/10/05 06:58:22;;;;;;;11.55;2.90;;;14.10;99.90;;;;;;5028285;28;20083;-62
2023/10/05 07:00:47;;;;;;;10.70;2.70;;;14.10;99.90;;;;;;5017639;28;20496;-61
2023/10/05 07:03:13;;;;;;;8.30;3.05;;;14.10;99.90;;;;;;5025287;28;20044;-60
2023/10/05 07:05:39;;;;;;;12.95;2.15;;;14.10;99.90;;;;;;5021901;28;20161;-62
2023/10/05 07:08:07;;;;;;;14.10;3.03;;;14.20;99.90;;;;;;5022062;28;20025;-60
2023/10/05 07:10:32;;;;;;;23.90;6.00;;;14.20;99.90;;;;;;5020919;28;20029;-60
2023/10/05 07:12:58;;;;;;;13.60;2.17;;;14.20;99.90;;;;;;5022337;28;20403;-60
2023/10/05 07:15:24;;;;;;;7.30;2.35;;;14.20;99.90;;;;;;5026335;28;20612;-62
2023/10/05 07:17:50;;;;;;;9.85;2.25;;;14.30;99.90;;;;;;5023599;28;20038;-61
2023/10/05 07:20:16;;;;;;;14.77;2.67;;;14.30;99.90;;;;;;5024800;28;20025;-61
2023/10/05 07:22:43;;;;;;;11.90;3.45;;;14.30;99.90;;;;;;5016141;28;20018;-61
2023/10/05 07:25:10;;;;;;;9.60;2.47;;;14.30;99.90;;;;;;5018309;28;20117;-62
2023/10/05 07:27:37;;;;;;;12.68;2.45;;;14.40;99.90;;;;;;5020142;28;20488;-60
2023/10/05 07:30:08;;;;;;;10.73;2.30;;;14.40;99.90;;;;;;5020459;28;20120;-60
2023/10/05 07:32:34;;;;;;;11.02;2.67;;;14.40;99.90;;;;;;5017852;28;20113;-61
2023/10/05 07:35:05;;;;;;;13.10;2.10;;;14.40;99.90;;;;;;5023616;28;20347;-61
2023/10/05 07:37:31;;;;;;;20.15;2.70;;;14.40;99.90;;;;;;5025874;28;20038;-61
2023/10/05 07:39:58;;;;;;;12.23;2.75;;;14.50;99.90;;;;;;5026581;28;20029;-61
2023/10/05 07:42:24;;;;;;;13.10;2.65;;;14.50;99.90;;;;;;5023895;28;20022;-61
2023/10/05 07:44:50;;;;;;;7.25;2.47;;;14.50;99.90;;;;;;5025257;28;20204;-61
2023/10/05 07:47:15;;;;;;;11.65;2.67;;;14.60;99.90;;;;;;5022871;28;20033;-59
2023/10/05 07:49:41;;;;;;;11.90;2.50;;;14.60;99.90;;;;;;5028339;28;20086;-60
2023/10/05 07:52:09;;;;;;;14.02;2.50;;;14.60;99.90;;;;;;5019164;28;20101;-60
2023/10/05 07:54:38;;;;;;;13.45;2.45;;;14.70;99.90;;;;;;5025400;28;20451;-61
2023/10/05 07:57:14;;;;;;;14.30;2.83;;;14.70;99.90;;;;;;5021887;28;20030;-62
2023/10/05 07:59:40;;;;;;;17.65;3.08;;;14.80;99.90;;;;;;5024541;28;20112;-61
2023/10/05 08:02:06;;;;;;;9.75;2.30;;;14.70;99.90;;;;;;5018049;28;20208;-62
2023/10/05 08:04:32;;;;;;;10.45;2.80;;;14.80;99.90;;;;;;5026211;28;20101;-61
2023/10/05 08:06:58;;;;;;;10.07;2.85;;;14.80;99.90;;;;;;5026244;28;20028;-61
2023/10/05 08:09:26;;;;;;;9.30;2.55;;;14.80;99.90;;;;;;5013952;28;20041;-62
2023/10/05 08:11:53;;;;;;;18.15;3.13;;;14.90;99.90;;;;;;5020852;28;20057;-60
2023/10/05 08:14:20;;;;;;;20.27;2.88;;;15.00;99.90;;;;;;5021069;28;20036;-62
2023/10/05 08:16:46;;;;;;;12.38;2.80;;;15.00;99.90;;;;;;5027877;28;20041;-62
2023/10/05 08:19:12;;;;;;;14.05;3.47;;;15.00;99.90;;;;;;5021542;28;20037;-61
2023/10/05 08:21:38;;;;;;;16.70;3.10;;;15.00;99.90;;;;;;5020770;28;20021;-61
2023/10/05 08:24:04;;;;;;;8.30;2.33;;;15.10;99.90;;;;;;5020845;28;20024;-60
2023/10/05 08:26:29;;;;;;;15.07;2.50;;;15.20;99.90;;;;;;5019612;28;20025;-59
2023/10/05 08:28:57;;;;;;;13.43;3.28;;;15.30;99.90;;;;;;5019549;28;20037;-60
2023/10/05 08:31:23;;;;;;;13.13;2.65;;;15.40;99.90;;;;;;5028846;28;20379;-62
2023/10/05 08:34:00;;;;;;;20.77;2.65;;;15.50;99.90;;;;;;5020875;28;20034;-61
2023/10/05 08:36:26;;;;;;;12.73;2.55;;;15.60;99.90;;;;;;5020879;28;20030;-61
2023/10/05 08:38:54;;;;;;;10.45;2.35;;;15.70;99.90;;;;;;5027973;28;20033;-61
2023/10/05 08:41:48;;;;;;;12.23;2.80;;;15.70;99.90;;;;;;5015810;28;20491;-57
2023/10/05 08:44:36;;;;;;;12.50;3.38;;;15.70;99.90;;;;;;5021730;28;20450;-61
2023/10/05 08:47:05;;;;;;;18.30;3.88;;;15.80;99.90;;;;;;5016216;28;20388;-61
2023/10/05 08:49:33;;;;;;;21.80;3.53;;;15.90;99.90;;;;;;5023184;28;20030;-60
2023/10/05 08:51:59;;;;;;;14.43;3.13;;;15.90;99.90;;;;;;5027909;28;20033;-62
2023/10/05 08:54:28;;;;;;;14.93;3.22;;;15.90;99.90;;;;;;5020717;28;20026;-61
2023/10/05 08:57:09;;;;;;;15.32;3.42;;;16.00;99.90;;;;;;5017952;28;20557;-60
2023/10/05 08:59:36;;;;;;;9.77;2.72;;;16.00;99.90;;;;;;5025925;28;20021;-61
2023/10/05 09:02:02;;;;;;;12.68;3.10;;;16.00;99.90;;;;;;5020271;28;20027;-61
2023/10/05 09:04:43;;;;;;;13.60;2.38;;;16.00;99.90;;;;;;5024749;28;20022;-61
2023/10/05 09:07:35;;;;;;;16.55;3.35;;;16.00;99.90;;;;;;5021054;28;20033;-62
2023/10/05 09:10:02;;;;;;;20.63;3.83;;;16.10;99.90;;;;;;5018620;28;20407;-62
2023/10/05 09:12:40;;;;;;;15.90;2.90;;;16.10;99.90;;;;;;5017050;28;20024;-62
2023/10/05 09:17:58;;;;;;;19.00;3.28;;;16.10;99.90;;;;;;5020533;28;20030;-61
2023/10/05 09:20:31;;;;;;;15.23;3.00;;;16.10;99.90;;;;;;5013080;28;20399;-62
2023/10/05 09:23:00;;;;;;;13.10;3.10;;;16.20;99.90;;;;;;5016516;28;20045;-59
2023/10/05 09:25:32;;;;;;;16.05;2.55;;;16.30;99.90;;;;;;5026225;28;20033;-62
2023/10/05 09:28:06;;;;;;;17.88;2.75;;;16.30;99.90;;;;;;5021574;28;20120;-59
2023/10/05 09:30:32;;;;;;;21.77;2.92;;;16.30;99.90;;;;;;5026207;28;20025;-62
2023/10/05 09:33:10;;;;;;;12.30;2.97;;;16.20;99.90;;;;;;5024958;28;20380;-53
2023/10/05 09:35:36;;;;;;;13.60;2.70;;;16.20;99.90;;;;;;5026039;28;20094;-62
2023/10/05 09:38:07;;;;;;;7.22;2.45;;;16.30;99.90;;;;;;5024304;28;20109;-62
2023/10/05 09:40:33;;;;;;;11.48;2.67;;;16.40;99.90;;;;;;5024336;28;20037;-61
2023/10/05 09:43:00;;;;;;;15.20;2.80;;;16.40;99.90;;;;;;5022010;28;20029;-56
2023/10/05 09:45:30;;;;;;;13.98;2.83;;;16.40;99.90;;;;;;5028324;28;20033;-61
2023/10/05 09:48:00;;;;;;;10.48;2.28;;;16.40;99.90;;;;;;5017553;28;20044;-62
2023/10/05 09:50:29;;;;;;;10.02;2.78;;;16.40;99.90;;;;;;5017060;28;20738;-61
2023/10/05 09:52:59;;;;;;;13.73;3.00;;;16.40;99.90;;;;;;5016771;28;20597;-62
2023/10/05 09:55:25;;;;;;;9.73;2.47;;;16.50;99.90;;;;;;5019318;28;20079;-62
2023/10/05 09:57:51;;;;;;;13.15;2.70;;;16.40;99.90;;;;;;5025086;28;20049;-63
2023/10/05 10:00:47;;;;;;;12.13;2.50;;;16.40;99.90;;;;;;5024638;28;20488;-59
2023/10/05 10:03:14;;;;;;;8.07;2.80;;;16.50;99.90;;;;;;5021490;28;20022;-59
2023/10/05 10:05:51;;;;;;;14.18;1.80;;;16.60;99.90;;;;;;5025041;28;20159;-60
2023/10/05 10:08:28;;;;;;;14.35;2.30;;;16.60;99.90;;;;;;5025844;28;20025;-59
2023/10/05 10:11:06;;;;;;;15.25;2.50;;;16.70;99.90;;;;;;5020589;28;20061;-60
2023/10/05 10:13:39;;;;;;;14.90;3.00;;;16.70;99.90;;;;;;5018261;28;20110;-59
2023/10/05 10:16:21;;;;;;;14.25;2.70;;;16.50;99.90;;;;;;5017955;28;20034;-60
2023/10/05 10:18:52;;;;;;;8.90;2.15;;;16.50;99.90;;;;;;5022727;28;20029;-61
2023/10/05 10:21:42;;;;;;;9.30;1.90;;;16.60;99.90;;;;;;5025495;28;20365;-61
2023/10/05 10:24:14;;;;;;;7.78;2.15;;;16.70;99.90;;;;;;5025229;28;20022;-58
2023/10/05 10:26:53;;;;;;;13.10;2.50;;;16.80;99.90;;;;;;5018746;28;20113;-60
2023/10/05 10:29:22;;;;;;;12.23;2.22;;;16.70;99.90;;;;;;5017305;28;20411;-60
2023/10/05 10:32:19;;;;;;;16.70;2.97;;;16.60;99.90;;;;;;5020535;28;20399;-59
2023/10/05 10:34:50;;;;;;;11.25;2.58;;;16.60;99.90;;;;;;5026310;28;20025;-58
2023/10/05 10:37:42;;;;;;;12.63;2.70;;;16.60;99.90;;;;;;5026155;28;20017;-60
2023/10/05 10:40:25;;;;;;;9.60;2.92;;;16.70;99.90;;;;;;5024578;28;20029;-59
2023/10/05 10:45:40;;;;;;;16.08;2.33;;;16.60;99.90;;;;;;5019173;28;20037;-59
2023/10/05 10:48:13;;;;;;;20.15;2.42;;;16.60;99.90;;;;;;5027153;28;20025;-60
2023/10/05 10:50:39;;;;;;;14.50;2.65;;;16.50;99.90;;;;;;5023129;28;20021;-60
2023/10/05 10:53:16;;;;;;;12.70;2.75;;;16.60;99.90;;;;;;5026601;28;20030;-59
2023/10/05 10:55:46;;;;;;;6.05;2.33;;;16.50;99.90;;;;;;5023666;28;20038;-61
2023/10/05 10:58:13;;;;;;;11.15;3.22;;;16.60;99.90;;;;;;5028226;28;20022;-61
2023/10/05 11:00:56;;;;;;;14.65;2.55;;;16.60;99.90;;;;;;5019249;28;20029;-61
2023/10/05 11:03:26;;;;;;;11.77;2.28;;;16.60;99.90;;;;;;5024870;28;20036;-56
2023/10/05 11:05:54;;;;;;;18.27;3.08;;;16.70;99.90;;;;;;5021793;28;20036;-63
2023/10/05 11:08:20;;;;;;;7.80;2.42;;;16.70;99.90;;;;;;5021079;28;20095;-62
2023/10/05 11:11:09;;;;;;;12.07;2.60;;;16.80;99.90;;;;;;5019590;28;20018;-61
2023/10/05 11:13:45;;;;;;;8.38;2.22;;;16.90;99.90;;;;;;5018490;28;20396;-62
2023/10/05 11:16:11;;;;;;;14.20;2.67;;;16.90;99.90;;;;;;5025297;28;20103;-63
2023/10/05 11:18:57;;;;;;;8.85;2.03;;;16.90;99.90;;;;;;5020696;28;20029;-62
2023/10/05 11:21:24;;;;;;;15.70;2.25;;;17.00;99.90;;;;;;5027657;28;20022;-62
2023/10/05 11:23:57;;;;;;;13.93;2.08;;;16.90;99.90;;;;;;5019828;28;20022;-60
2023/10/05 11:26:28;;;;;;;10.38;2.33;;;16.90;99.90;;;;;;5017946;28;21244;-61
2023/10/05 11:28:56;;;;;;;15.63;2.20;;;16.90;99.90;;;;;;5022830;28;20029;-60
2023/10/05 11:31:24;;;;;;;7.68;2.35;;;17.00;99.90;;;;;;5025401;28;20041;-61
2023/10/05 11:33:53;;;;;;;15.32;2.70;;;16.90;99.90;;;;;;5023167;28;20029;-62
2023/10/05 11:36:27;;;;;;;7.50;2.00;;;16.80;99.90;;;;;;5015479;28;20032;-58
2023/10/05 11:38:59;;;;;;;10.55;2.20;;;16.90;99.90;;;;;;5018034;28;20029;-62
2023/10/05 11:41:28;;;;;;;14.60;2.90;;;16.90;99.90;;;;;;5024785;28;20032;-60
2023/10/05 11:43:58;;;;;;;7.88;2.50;;;16.90;99.90;;;;;;5014283;28;20109;-62
2023/10/05 11:46:24;;;;;;;10.40;2.45;;;17.00;99.90;;;;;;5021672;28;20163;-61
2023/10/05 11:48:54;;;;;;;11.05;2.60;;;17.10;99.90;;;;;;5015537;28;20091;-63
2023/10/05 11:51:27;;;;;;;10.07;2.50;;;17.20;99.90;;;;;;5015738;28;20029;-61
2023/10/05 11:53:55;;;;;;;5.35;1.90;;;17.20;99.90;;;;;;5019537;28;20037;-61
2023/10/05 11:56:21;;;;;;;11.10;2.40;;;17.30;99.90;;;;;;5014947;28;20040;-62
2023/10/05 11:58:47;;;;;;;10.73;2.38;;;17.40;99.90;;;;;;5013235;28;20528;-62
2023/10/05 12:01:17;;;;;;;12.27;2.67;;;17.60;99.90;;;;;;5018999;28;20041;-61
2023/10/05 12:03:47;;;;;;;13.00;2.03;;;17.50;99.90;;;;;;5024611;28;20022;-61
2023/10/05 12:06:15;;;;;;;12.40;2.40;;;17.70;99.90;;;;;;5011321;28;20029;-62
2023/10/05 12:08:46;;;;;;;8.02;2.30;;;18.10;99.90;;;;;;5010963;28;20042;-62
2023/10/05 12:11:13;;;;;;;10.48;3.30;;;18.30;99.90;;;;;;5013003;28;20056;-60
2023/10/05 12:13:38;;;;;;;8.05;2.15;;;18.60;99.90;;;;;;5011108;28;20021;-60
2023/10/05 12:16:11;;;;;;;11.30;2.00;;;18.80;99.90;;;;;;5013106;28;20503;-62
2023/10/05 12:18:37;;;;;;;15.13;2.40;;;18.90;99.90;;;;;;5014837;28;20091;-62
2023/10/05 12:21:03;;;;;;;8.45;1.90;;;19.10;99.90;;;;;;5020493;28;20775;-62
2023/10/05 12:23:28;;;;;;;14.45;2.63;;;19.20;99.90;;;;;;5020689;28;20032;-62
2023/10/05 12:25:54;;;;;;;13.27;2.05;;;19.50;99.90;;;;;;5019895;28;20032;-62
2023/10/05 12:28:23;;;;;;;8.88;2.25;;;19.80;99.90;;;;;;5023672;28;20045;-62
2023/10/05 12:30:49;;;;;;;12.80;2.33;;;19.80;99.90;;;;;;5020902;28;20030;-62
2023/10/05 12:33:15;;;;;;;6.72;1.80;;;19.10;99.90;;;;;;5019561;28;20463;-61
2023/10/05 12:35:43;;;;;;;7.90;1.90;;;18.80;99.90;;;;;;5017586;28;20041;-59
2023/10/05 12:38:09;;;;;;;7.45;1.90;;;18.50;99.90;;;;;;5016769;28;20022;-62
2023/10/05 12:40:40;;;;;;;8.73;2.08;;;18.60;99.90;;;;;;5018146;28;20121;-60
2023/10/05 12:43:09;;;;;;;13.13;2.03;;;18.80;99.90;;;;;;5015581;28;20096;-62
2023/10/05 12:45:35;;;;;;;16.23;2.17;;;19.00;99.90;;;;;;5018378;28;20029;-62
2023/10/05 12:48:00;;;;;;;6.55;1.77;;;19.10;99.90;;;;;;5019870;28;20044;-61
2023/10/05 12:50:30;;;;;;;4.18;1.63;;;19.30;99.90;;;;;;5010228;28;20096;-60
2023/10/05 12:52:58;;;;;;;7.60;1.92;;;19.10;99.90;;;;;;5012104;28;20029;-61
2023/10/05 12:55:26;;;;;;;12.43;1.98;;;18.90;99.90;;;;;;5015672;28;20527;-62
2023/10/05 12:57:53;;;;;;;8.50;1.73;;;18.80;99.90;;;;;;5019421;28;20247;-62
2023/10/05 13:00:28;;;;;;;6.65;1.77;;;18.60;99.90;;;;;;5011156;28;20065;-60
2023/10/05 13:02:55;;;;;;;9.95;2.25;;;18.30;99.90;;;;;;5021588;28;20026;-62
2023/10/05 13:05:28;;;;;;;11.55;1.75;;;18.30;99.90;;;;;;5021513;28;20033;-62
2023/10/05 13:07:54;;;;;;;12.80;2.28;;;18.40;99.90;;;;;;5013798;28;20120;-61
2023/10/05 13:10:26;;;;;;;5.47;1.55;;;18.70;99.90;;;;;;5018185;28;20116;-62
2023/10/05 13:12:53;;;;;;;8.18;2.13;;;19.20;99.90;;;;;;5018839;28;20041;-62
2023/10/05 13:15:19;;;;;;;9.55;1.73;;;19.30;99.90;;;;;;5022472;28;20638;-61
2023/10/05 13:17:46;;;;;;;17.85;2.53;;;19.50;99.90;;;;;;5017232;28;20026;-62
2023/10/05 13:20:15;;;;;;;8.02;2.00;;;19.50;99.90;;;;;;5022592;28;20052;-62
2023/10/05 13:22:44;;;;;;;10.77;2.92;;;19.60;99.90;;;;;;5019166;28;20036;-62
2023/10/05 13:25:11;;;;;;;10.57;2.15;;;19.70;99.90;;;;;;5024866;28;20045;-62
2023/10/05 13:27:36;;;;;;;10.40;2.05;;;19.70;99.90;;;;;;5015440;28;20064;-60